Etusivu
METAR-TAF:

METAR-TAF

Lentoasemat :

Vitoria, Espanja

Leveyspiiri: 42-53N, Pituuspiiri: 002-43W, korkeus merenpinnasta: 513 m

Tämänhetkinen sää

Tämä raportti tehtiin 13 minuuttia sitten, kello 01.30 UTC
tyyntä
Lämpötila 1°C
Kosteus 93%
Ilmanpaine 1021 hPa
Näkyvyys 10 km tai enemmän
Muutamia pilviä 7000 ft:n korkeudessa

METAR: LEVT 200130Z 00000KT 9999 FEW070 01/00 Q1021

Aika: 02:43 (01:43 UTC)

Sääennuste

Tämä raportti tehtiin 2 tuntia ja 43 minuuttia sitten, kello 23.00 UTC
Ennuste voimassa 20. päivästä klo 00 UTC - 20. päivään klo 24 UTC
Tuuli 3 kn eri suunnista
Näkyvyys 10 km tai enemmän
ei pilviä alle 1500 m:ssä eikä cumulonimbus-pilviä
Todennäköisyys 40% :
Ajoittain
20. päivästä klo 00 UTC - 20. päivään klo 06 UTC
Näkyvyys: 3000 m
utua
Ajoittain
20. päivästä klo 09 UTC - 20. päivään klo 20 UTC
Tuuli 10 kn etelästä/lounaasta

TAF: LEVT 192300Z 2000/2024 VRB03KT CAVOK TX15/2015Z TNM00/2006Z PROB40 TEMPO 2000/2006 3000 BR TEMPO 2009/2020 20010KT

Säähavainnot ja -ennusteet yli 4000 lentoasemalta (METAR- ja TAF-raportit).

Käytössä olevat sääasemat on merkitty karttaan keltaisilla ja punaisilla pisteillä.

Aseta hiiri pisteen päälle nähdäksesi sääaseman nimen.

Klikkaa sitten nähdäksesi säähavainnot ja -ennusteet.

Kartan vaihtaminen: klikkaa mustalla rastilla varustettuja vihreitä pisteitä, niin voit zoomata sisään; viivalla varustettua vihreää pistettä, niin voit zoomata ulos tai vihreitä nuolia, niin pääset viereisille kartoille.


METAR-TAF: